Time;durP1;ratioP1;P1;durP2;ratioP2;P2;SDS_P1;SDS_P2;PMS_P1;PMS_P2;Temp;Humidity;BMP_temperature;BMP_pressure;BME280_temperature;BME280_humidity;BME280_pressure;Samples;Min_cycle;Max_cycle;Signal;HPM_P1;HPM_P2
2021/05/25 00:00:56;;;;;;;4.07;2.03;;;9.30;99.90;;;;;;5055591;28;20183;-87
2021/05/25 00:03:22;;;;;;;7.82;2.40;;;9.30;99.90;;;;;;5055457;28;20163;-88
2021/05/25 00:05:48;;;;;;;3.58;2.08;;;9.20;99.90;;;;;;5038878;28;20245;-89
2021/05/25 00:08:14;;;;;;;4.30;1.67;;;9.10;99.90;;;;;;5055590;28;20616;-89
2021/05/25 00:10:39;;;;;;;3.92;1.73;;;9.10;99.90;;;;;;5055053;28;20605;-89
2021/05/25 00:13:06;;;;;;;4.15;1.92;;;9.10;99.90;;;;;;5038609;28;20204;-88
2021/05/25 00:15:33;;;;;;;3.13;1.20;;;9.00;99.90;;;;;;5055568;28;20179;-88
2021/05/25 00:18:00;;;;;;;2.00;1.20;;;9.10;99.90;;;;;;5056264;28;20171;-88
2021/05/25 00:20:26;;;;;;;3.85;1.20;;;9.10;99.90;;;;;;5055232;28;20262;-89
2021/05/25 00:22:52;;;;;;;1.38;1.10;;;9.20;99.90;;;;;;5055154;28;20195;-89
2021/05/25 00:25:19;;;;;;;2.38;1.30;;;9.20;99.90;;;;;;5053793;28;20174;-88
2021/05/25 00:27:46;;;;;;;2.53;1.17;;;9.20;99.90;;;;;;5038891;28;20190;-88
2021/05/25 00:30:14;;;;;;;2.40;1.30;;;9.20;99.90;;;;;;5055121;28;20171;-88
2021/05/25 00:32:41;;;;;;;2.65;0.88;;;9.20;99.90;;;;;;5054842;28;20210;-88
2021/05/25 00:35:07;;;;;;;1.90;0.95;;;9.10;99.90;;;;;;5055933;28;20624;-88
2021/05/25 00:37:33;;;;;;;1.77;1.25;;;9.00;99.90;;;;;;5055938;28;20246;-88
2021/05/25 00:39:59;;;;;;;3.42;1.42;;;9.00;99.90;;;;;;5054964;28;20177;-87
2021/05/25 00:42:25;;;;;;;2.03;0.70;;;8.90;99.90;;;;;;5054712;28;20175;-88
2021/05/25 00:44:51;;;;;;;5.38;1.17;;;8.80;99.90;;;;;;5054177;28;20202;-87
2021/05/25 00:47:31;;;;;;;3.95;0.82;;;8.70;99.90;;;;;;5055665;28;20214;-88
2021/05/25 00:50:09;;;;;;;3.50;1.20;;;8.70;99.90;;;;;;5054413;28;20608;-89
2021/05/25 00:52:38;;;;;;;3.75;0.88;;;8.60;99.90;;;;;;5054619;28;20199;-88
2021/05/25 00:55:06;;;;;;;4.45;0.90;;;8.60;99.90;;;;;;5054641;28;20171;-88
2021/05/25 00:57:31;;;;;;;1.55;0.90;;;8.50;99.90;;;;;;5054514;28;20221;-88
2021/05/25 00:59:57;;;;;;;2.63;1.17;;;8.60;99.90;;;;;;5054496;28;20579;-88
2021/05/25 01:02:23;;;;;;;1.40;1.00;;;8.70;99.90;;;;;;5059215;28;20180;-88
2021/05/25 01:04:49;;;;;;;5.20;0.80;;;8.70;99.90;;;;;;5071533;28;20183;-88
2021/05/25 01:07:14;;;;;;;1.90;1.02;;;8.90;99.90;;;;;;5077747;28;20182;-88
2021/05/25 01:09:40;;;;;;;1.20;0.82;;;8.90;99.90;;;;;;5072168;28;20176;-89
2021/05/25 01:12:08;;;;;;;1.38;0.90;;;8.90;99.90;;;;;;5055385;28;20690;-89
2021/05/25 01:14:41;;;;;;;1.58;0.80;;;8.90;99.90;;;;;;5037595;28;20200;-88
2021/05/25 01:17:07;;;;;;;1.52;0.90;;;8.90;99.90;;;;;;5054156;28;20179;-89
2021/05/25 01:19:32;;;;;;;3.15;1.10;;;8.90;99.90;;;;;;5037845;28;20172;-88
2021/05/25 01:21:59;;;;;;;1.13;0.85;;;8.90;99.90;;;;;;5068524;28;20186;-89
2021/05/25 01:24:34;;;;;;;1.20;0.95;;;9.00;99.90;;;;;;5075091;28;20163;-87
2021/05/25 01:27:06;;;;;;;3.33;1.00;;;9.00;99.90;;;;;;5067334;28;20179;-89
2021/05/25 01:29:36;;;;;;;3.42;1.10;;;9.10;99.90;;;;;;5053842;28;20727;-88
2021/05/25 01:32:02;;;;;;;2.78;1.00;;;9.10;99.90;;;;;;5053861;28;20273;-88
2021/05/25 01:34:28;;;;;;;1.63;1.00;;;9.10;99.90;;;;;;5054901;28;20170;-89
2021/05/25 01:36:53;;;;;;;2.50;1.15;;;9.10;99.90;;;;;;5054208;28;20172;-88
2021/05/25 01:39:19;;;;;;;2.28;1.15;;;9.10;99.90;;;;;;5053859;28;20167;-88
2021/05/25 01:41:45;;;;;;;3.58;1.02;;;9.20;99.90;;;;;;5053035;28;20211;-89
2021/05/25 01:44:11;;;;;;;6.20;1.30;;;9.20;99.90;;;;;;5036980;28;20177;-88
2021/05/25 01:46:43;;;;;;;2.85;0.98;;;9.20;99.90;;;;;;5036676;28;20262;-88
2021/05/25 01:49:09;;;;;;;6.60;1.70;;;9.20;99.90;;;;;;5053522;28;20171;-88
2021/05/25 01:51:34;;;;;;;4.18;1.60;;;9.20;99.90;;;;;;5036833;28;20211;-88
2021/05/25 01:54:00;;;;;;;4.18;1.23;;;9.30;99.90;;;;;;5054545;28;20180;-87
2021/05/25 01:56:26;;;;;;;3.88;1.90;;;9.30;99.90;;;;;;5054502;28;20168;-88
2021/05/25 01:58:51;;;;;;;4.63;1.50;;;9.20;99.90;;;;;;5036615;28;20317;-88
2021/05/25 02:01:17;;;;;;;2.00;1.38;;;9.30;99.90;;;;;;5053100;28;20203;-88
2021/05/25 02:03:43;;;;;;;3.17;1.65;;;9.30;99.90;;;;;;5032694;28;20637;-87
2021/05/25 02:06:10;;;;;;;8.00;1.60;;;9.30;99.90;;;;;;5050765;28;20189;-87
2021/05/25 02:08:36;;;;;;;3.13;1.75;;;9.30;99.90;;;;;;5052699;28;20205;-88
2021/05/25 02:11:03;;;;;;;3.65;1.90;;;9.30;99.90;;;;;;5036581;28;20171;-87
2021/05/25 02:13:32;;;;;;;3.92;2.17;;;9.30;99.90;;;;;;5036741;28;20613;-88
2021/05/25 02:16:01;;;;;;;2.13;1.50;;;9.40;99.90;;;;;;5052987;28;20194;-86
2021/05/25 02:18:30;;;;;;;5.22;1.92;;;9.40;99.90;;;;;;5054571;28;20570;-86
2021/05/25 02:20:58;;;;;;;4.20;1.70;;;9.40;99.90;;;;;;5053152;28;20167;-87
2021/05/25 02:23:25;;;;;;;5.60;1.75;;;9.40;99.90;;;;;;5052865;28;20179;-87
2021/05/25 02:25:51;;;;;;;2.58;1.67;;;9.50;99.90;;;;;;5052855;28;20167;-87
2021/05/25 02:28:17;;;;;;;3.75;2.10;;;9.50;99.90;;;;;;5052972;28;20168;-87
2021/05/25 02:30:43;;;;;;;8.13;2.80;;;9.50;99.90;;;;;;5053000;28;20168;-87
2021/05/25 02:33:12;;;;;;;3.83;2.05;;;9.50;99.90;;;;;;5053601;28;20191;-87
2021/05/25 02:35:39;;;;;;;7.57;2.33;;;9.50;99.90;;;;;;5052552;28;20452;-87
2021/05/25 02:38:07;;;;;;;7.32;1.95;;;9.50;99.90;;;;;;5036097;28;20171;-87
2021/05/25 02:40:34;;;;;;;5.07;2.13;;;9.60;99.90;;;;;;5052886;28;20206;-88
2021/05/25 02:43:00;;;;;;;3.55;2.00;;;9.70;99.90;;;;;;5052632;28;20175;-87
2021/05/25 02:45:26;;;;;;;6.20;2.35;;;9.70;99.90;;;;;;5052450;28;20171;-87
2021/05/25 02:47:52;;;;;;;3.35;2.38;;;9.80;99.90;;;;;;5037527;28;20171;-87
2021/05/25 02:50:19;;;;;;;4.10;2.50;;;9.80;99.90;;;;;;5040018;28;20167;-87
2021/05/25 02:52:49;;;;;;;2.65;1.75;;;9.80;99.90;;;;;;5057633;28;20203;-87
2021/05/25 02:55:17;;;;;;;6.10;2.40;;;9.80;99.90;;;;;;5056732;28;20255;-87
2021/05/25 02:57:43;;;;;;;9.02;2.20;;;9.70;99.90;;;;;;5071247;28;20190;-87
2021/05/25 03:00:13;;;;;;;8.60;2.42;;;9.70;99.90;;;;;;5076463;28;20170;-87
2021/05/25 03:02:39;;;;;;;5.18;2.70;;;9.70;99.90;;;;;;5063895;28;20171;-88
2021/05/25 03:05:07;;;;;;;4.43;2.40;;;9.70;99.90;;;;;;5056157;28;20175;-87
2021/05/25 03:07:33;;;;;;;9.20;2.58;;;9.80;99.90;;;;;;5056280;28;20663;-88
2021/05/25 03:09:59;;;;;;;6.80;3.25;;;9.80;99.90;;;;;;5056522;28;20167;-87
2021/05/25 03:12:24;;;;;;;9.15;2.92;;;9.70;99.90;;;;;;5056022;28;20203;-88
2021/05/25 03:14:51;;;;;;;6.05;3.15;;;9.90;99.90;;;;;;5056229;28;20176;-88
2021/05/25 03:17:21;;;;;;;6.50;3.15;;;10.00;99.90;;;;;;5055999;28;20167;-87
2021/05/25 03:19:46;;;;;;;7.85;3.30;;;10.00;99.90;;;;;;5056044;28;20182;-87
2021/05/25 03:22:12;;;;;;;4.57;3.05;;;10.00;99.90;;;;;;5039274;28;20526;-87
2021/05/25 03:24:38;;;;;;;5.50;2.92;;;9.90;99.90;;;;;;5056182;28;20203;-88
2021/05/25 03:27:03;;;;;;;5.93;3.17;;;9.90;99.90;;;;;;5057272;28;20167;-88
2021/05/25 03:29:29;;;;;;;10.75;3.20;;;9.90;99.90;;;;;;5056170;28;20168;-88
2021/05/25 03:31:54;;;;;;;4.38;3.15;;;10.00;99.90;;;;;;5063583;28;20281;-88
2021/05/25 03:34:20;;;;;;;6.00;3.33;;;10.00;99.90;;;;;;5080154;28;20162;-87
2021/05/25 03:36:46;;;;;;;3.15;2.80;;;9.80;99.90;;;;;;5080210;28;20160;-86
2021/05/25 03:39:11;;;;;;;9.65;3.60;;;9.80;99.90;;;;;;5063792;28;20167;-87
2021/05/25 03:41:37;;;;;;;6.38;3.70;;;9.80;99.90;;;;;;5070851;28;20176;-86
2021/05/25 03:44:03;;;;;;;8.65;3.50;;;9.90;99.90;;;;;;5056762;28;20168;-86
2021/05/25 03:46:28;;;;;;;4.03;3.20;;;9.90;99.90;;;;;;5055330;28;20193;-85
2021/05/25 03:48:54;;;;;;;6.85;3.38;;;10.00;99.90;;;;;;5056321;28;20221;-86
2021/05/25 03:51:20;;;;;;;6.75;3.33;;;9.90;99.90;;;;;;5068037;28;20179;-86
2021/05/25 03:53:46;;;;;;;5.88;3.72;;;9.90;99.90;;;;;;5055634;28;20183;-86
2021/05/25 03:58:51;;;;;;;5.20;4.15;;;9.80;99.90;;;;;;5036495;28;20188;-85
2021/05/25 04:01:27;;;;;;;6.82;4.68;;;9.80;99.90;;;;;;5051286;28;20182;-87
2021/05/25 04:03:55;;;;;;;7.35;4.30;;;9.80;99.90;;;;;;5054847;28;20178;-86
2021/05/25 04:06:22;;;;;;;11.15;5.10;;;9.80;99.90;;;;;;5038590;28;20621;-84
2021/05/25 04:08:48;;;;;;;7.57;4.70;;;9.80;99.90;;;;;;5055795;28;20641;-87
2021/05/25 04:11:17;;;;;;;8.43;4.30;;;9.80;99.90;;;;;;5054420;28;20201;-86
2021/05/25 04:13:43;;;;;;;8.00;4.70;;;9.80;99.90;;;;;;5054699;28;20536;-86
2021/05/25 04:16:12;;;;;;;6.72;4.60;;;9.90;99.90;;;;;;5054949;28;20178;-86
2021/05/25 04:18:39;;;;;;;6.40;4.40;;;9.80;99.90;;;;;;5056064;28;20258;-86
2021/05/25 04:21:05;;;;;;;8.15;4.63;;;9.90;99.90;;;;;;5056102;28;20691;-86
2021/05/25 04:23:31;;;;;;;11.70;5.78;;;9.90;99.90;;;;;;5054696;28;20225;-87
2021/05/25 04:25:56;;;;;;;5.40;4.90;;;9.90;99.90;;;;;;5056399;28;20164;-87
2021/05/25 04:28:22;;;;;;;7.93;5.00;;;9.90;99.90;;;;;;5055183;28;20214;-88
2021/05/25 04:30:48;;;;;;;8.27;4.60;;;9.90;99.90;;;;;;5054864;28;20355;-89
2021/05/25 04:33:13;;;;;;;5.88;5.28;;;9.90;99.90;;;;;;5054868;28;20277;-88
2021/05/25 04:35:39;;;;;;;6.78;5.07;;;9.90;99.90;;;;;;5054838;28;20178;-89
2021/05/25 04:38:05;;;;;;;7.97;5.47;;;9.90;99.90;;;;;;5054987;28;20205;-88
2021/05/25 04:40:33;;;;;;;8.60;6.35;;;10.00;99.90;;;;;;5054871;28;20186;-88
2021/05/25 04:42:59;;;;;;;7.57;6.35;;;10.10;99.90;;;;;;5054882;28;20183;-88
2021/05/25 04:45:24;;;;;;;10.43;7.05;;;10.20;99.90;;;;;;5054654;28;20171;-88
2021/05/25 04:47:50;;;;;;;13.70;7.72;;;10.20;99.90;;;;;;5054602;28;20229;-89
2021/05/25 04:50:18;;;;;;;9.98;7.40;;;10.30;99.90;;;;;;5054696;28;20179;-89
2021/05/25 04:52:44;;;;;;;8.35;7.45;;;10.30;99.90;;;;;;5054435;28;20195;-89
2021/05/25 04:55:13;;;;;;;13.48;7.57;;;10.40;99.90;;;;;;5055343;28;20671;-88
2021/05/25 04:57:39;;;;;;;10.90;8.60;;;10.40;99.90;;;;;;5054070;28;20187;-88
2021/05/25 05:00:08;;;;;;;13.73;8.98;;;10.50;99.90;;;;;;5054533;28;20176;-88
2021/05/25 05:02:34;;;;;;;10.00;8.88;;;10.50;99.90;;;;;;5054311;28;20171;-88
2021/05/25 05:04:59;;;;;;;13.55;8.68;;;10.60;99.90;;;;;;5029408;28;20217;-87
2021/05/25 05:07:25;;;;;;;11.23;9.65;;;10.80;99.90;;;;;;5054119;28;20172;-89
2021/05/25 05:09:51;;;;;;;11.80;7.85;;;10.80;99.90;;;;;;5054342;28;20182;-89
2021/05/25 05:12:16;;;;;;;16.15;9.70;;;10.90;99.90;;;;;;5053754;28;20207;-88
2021/05/25 05:14:42;;;;;;;10.55;9.00;;;10.80;99.90;;;;;;5054365;28;20171;-88
2021/05/25 05:17:08;;;;;;;10.18;9.27;;;10.80;99.90;;;;;;5055204;28;20668;-87
2021/05/25 05:19:33;;;;;;;10.88;9.75;;;10.80;99.90;;;;;;5055139;28;20207;-87
2021/05/25 05:21:59;;;;;;;16.48;9.82;;;10.70;99.90;;;;;;5053648;28;20590;-87
2021/05/25 05:24:25;;;;;;;13.00;10.30;;;10.80;99.90;;;;;;5053842;28;20198;-88
2021/05/25 05:26:51;;;;;;;16.05;8.98;;;10.80;99.90;;;;;;5053759;28;20594;-89
2021/05/25 05:29:17;;;;;;;14.18;9.95;;;10.90;99.90;;;;;;5036851;28;20214;-88
2021/05/25 05:31:44;;;;;;;15.55;9.50;;;11.00;99.90;;;;;;5053312;28;20407;-88
2021/05/25 05:34:10;;;;;;;9.20;8.30;;;11.10;99.90;;;;;;5037098;28;20175;-88
2021/05/25 05:36:35;;;;;;;13.02;8.60;;;11.20;99.90;;;;;;5054146;28;20174;-87
2021/05/25 05:39:02;;;;;;;11.85;8.25;;;11.10;99.90;;;;;;5053610;28;20172;-88
2021/05/25 05:41:28;;;;;;;8.73;6.93;;;11.20;99.90;;;;;;5054806;28;20208;-88
2021/05/25 05:43:54;;;;;;;7.07;6.43;;;11.30;99.90;;;;;;5054870;28;20168;-89
2021/05/25 05:46:19;;;;;;;8.32;5.85;;;11.30;99.90;;;;;;5054893;28;20163;-88
2021/05/25 05:48:45;;;;;;;5.60;5.07;;;11.20;99.90;;;;;;5053679;28;20172;-88
2021/05/25 05:51:11;;;;;;;5.32;4.20;;;11.10;99.90;;;;;;5053497;28;20182;-87
2021/05/25 05:53:36;;;;;;;7.15;4.35;;;10.90;99.90;;;;;;5052982;28;20252;-87
2021/05/25 05:56:02;;;;;;;13.70;4.13;;;10.80;99.90;;;;;;5054188;28;20213;-88
2021/05/25 05:58:28;;;;;;;4.93;4.10;;;10.70;99.90;;;;;;5054198;28;20178;-88
2021/05/25 06:00:54;;;;;;;3.58;3.38;;;10.70;99.90;;;;;;5033576;28;20244;-88
2021/05/25 06:03:19;;;;;;;4.57;4.18;;;10.70;99.90;;;;;;5055403;28;20191;-88
2021/05/25 06:05:46;;;;;;;5.10;4.03;;;10.90;99.90;;;;;;5075785;28;20158;-86
2021/05/25 06:08:13;;;;;;;4.10;3.55;;;11.00;99.90;;;;;;5075464;28;20175;-88
2021/05/25 06:10:42;;;;;;;4.00;3.70;;;11.00;99.90;;;;;;5053518;28;20163;-87
2021/05/25 06:13:08;;;;;;;3.53;3.33;;;11.20;99.90;;;;;;5054003;28;20294;-88
2021/05/25 06:15:34;;;;;;;4.88;3.88;;;11.60;99.90;;;;;;5052395;28;20577;-87
2021/05/25 06:18:00;;;;;;;3.90;3.53;;;11.90;99.90;;;;;;5035748;28;20189;-89
2021/05/25 06:20:26;;;;;;;4.72;3.25;;;11.90;99.90;;;;;;5064063;28;20229;-87
2021/05/25 06:22:52;;;;;;;4.47;3.58;;;11.70;99.90;;;;;;5072002;28;20223;-85
2021/05/25 06:25:18;;;;;;;3.78;3.05;;;11.60;99.90;;;;;;5049198;28;20172;-86
2021/05/25 06:27:43;;;;;;;2.90;2.70;;;11.20;99.90;;;;;;5035049;28;20179;-87
2021/05/25 06:30:10;;;;;;;3.60;3.30;;;11.20;99.90;;;;;;5051365;28;20233;-88
2021/05/25 06:32:37;;;;;;;4.20;3.72;;;11.30;99.90;;;;;;5034951;28;20276;-87
2021/05/25 06:35:05;;;;;;;6.63;4.70;;;11.20;99.90;;;;;;5051292;28;20168;-87
2021/05/25 06:37:31;;;;;;;6.97;5.47;;;11.10;99.90;;;;;;5051426;28;20194;-88
2021/05/25 06:39:57;;;;;;;5.72;5.20;;;11.10;99.90;;;;;;5051797;28;20203;-87
2021/05/25 06:42:23;;;;;;;9.23;5.55;;;11.20;99.90;;;;;;5051395;28;20497;-88
2021/05/25 06:44:49;;;;;;;7.15;4.50;;;11.30;99.90;;;;;;5051324;28;20171;-86
2021/05/25 06:47:14;;;;;;;7.03;4.38;;;11.50;99.90;;;;;;5035214;28;20270;-86
2021/05/25 06:49:40;;;;;;;7.28;4.13;;;11.60;99.90;;;;;;5051352;28;20172;-87
2021/05/25 06:52:07;;;;;;;10.30;3.33;;;11.70;99.90;;;;;;5051265;28;20206;-87
2021/05/25 06:54:33;;;;;;;6.25;3.15;;;11.80;99.90;;;;;;5051310;28;20209;-87
2021/05/25 06:57:02;;;;;;;5.35;3.67;;;12.20;99.90;;;;;;5052283;28;20167;-87
2021/05/25 06:59:28;;;;;;;3.05;2.67;;;12.60;99.90;;;;;;5012294;28;1123766;-86
2021/05/25 07:01:53;;;;;;;5.35;2.85;;;13.40;99.90;;;;;;5052272;28;20612;-87
2021/05/25 07:04:20;;;;;;;3.72;2.50;;;14.20;99.90;;;;;;5051802;28;20167;-87
2021/05/25 07:06:46;;;;;;;3.33;2.90;;;14.20;99.90;;;;;;5053284;28;20171;-87
2021/05/25 07:09:12;;;;;;;6.75;2.92;;;13.50;99.90;;;;;;5032071;28;20179;-86
2021/05/25 07:11:38;;;;;;;4.80;2.80;;;13.20;99.90;;;;;;5066117;28;20189;-86
2021/05/25 07:14:04;;;;;;;3.95;3.05;;;13.00;99.90;;;;;;5043965;28;20180;-87
2021/05/25 07:16:30;;;;;;;9.43;2.95;;;12.80;99.90;;;;;;5053040;28;20195;-87
2021/05/25 07:18:58;;;;;;;6.70;3.30;;;12.80;99.90;;;;;;5035524;28;20198;-77
2021/05/25 07:21:23;;;;;;;3.42;3.03;;;12.70;99.90;;;;;;5053239;28;20263;-79
2021/05/25 07:23:50;;;;;;;5.45;3.50;;;12.90;99.90;;;;;;5051960;28;20195;-86
2021/05/25 07:26:16;;;;;;;7.07;3.13;;;13.10;99.90;;;;;;5053100;28;20167;-86
2021/05/25 07:28:42;;;;;;;4.70;2.83;;;13.30;99.90;;;;;;5053436;28;20176;-86
2021/05/25 07:31:07;;;;;;;5.40;3.40;;;13.50;99.90;;;;;;5051768;28;20620;-86
2021/05/25 07:33:33;;;;;;;4.60;2.80;;;13.60;99.90;;;;;;5053662;28;20654;-86
2021/05/25 07:35:59;;;;;;;10.90;3.10;;;13.60;99.90;;;;;;5055386;28;20175;-86
2021/05/25 07:38:24;;;;;;;10.38;3.10;;;13.60;99.90;;;;;;5055403;28;20582;-86
2021/05/25 07:40:50;;;;;;;6.45;2.67;;;13.60;99.90;;;;;;5055295;28;20168;-85
2021/05/25 07:43:16;;;;;;;6.20;2.67;;;13.80;99.90;;;;;;5056500;28;20171;-86
2021/05/25 07:45:43;;;;;;;6.38;2.47;;;13.90;99.90;;;;;;5056167;28;20179;-87
2021/05/25 07:48:09;;;;;;;8.38;2.70;;;14.10;99.90;;;;;;5056316;28;20182;-86
2021/05/25 07:50:35;;;;;;;10.20;2.25;;;14.40;99.90;;;;;;5054942;28;20175;-86
2021/05/25 07:53:00;;;;;;;6.60;2.05;;;14.40;99.90;;;;;;5054621;28;20195;-85
2021/05/25 07:55:31;;;;;;;7.60;2.55;;;14.70;99.90;;;;;;5038666;28;20224;-86
2021/05/25 07:57:57;;;;;;;7.72;2.33;;;15.20;99.90;;;;;;5054953;28;20218;-85
2021/05/25 08:00:24;;;;;;;5.50;1.70;;;15.50;99.90;;;;;;5055069;28;20191;-86
2021/05/25 08:02:49;;;;;;;6.07;1.92;;;15.40;99.90;;;;;;5055115;28;20167;-85
2021/05/25 08:05:16;;;;;;;10.98;1.77;;;15.50;99.90;;;;;;5056167;28;20241;-85
2021/05/25 08:07:42;;;;;;;5.43;1.88;;;16.00;99.90;;;;;;5038338;28;20176;-87
2021/05/25 08:10:11;;;;;;;4.22;2.05;;;16.90;99.90;;;;;;5054783;28;20174;-86
2021/05/25 08:12:36;;;;;;;6.47;1.67;;;18.40;99.90;;;;;;5054608;28;20244;-86
2021/05/25 08:15:05;;;;;;;4.25;1.60;;;20.80;99.90;;;;;;5055565;28;20180;-86
2021/05/25 08:20:02;;;;;;;5.03;1.75;;;21.80;99.90;;;;;;5055685;28;20183;-86
2021/05/25 08:22:28;;;;;;;5.22;1.45;;;21.20;99.90;;;;;;5055777;28;20692;-86
2021/05/25 08:24:54;;;;;;;6.18;1.55;;;22.10;99.90;;;;;;5037798;28;20266;-85
2021/05/25 08:27:19;;;;;;;4.78;1.50;;;23.40;99.90;;;;;;5054366;28;20237;-85
2021/05/25 08:29:45;;;;;;;3.50;1.88;;;23.20;99.90;;;;;;5057767;28;20172;-87
2021/05/25 08:32:10;;;;;;;5.47;1.65;;;24.60;99.90;;;;;;5068308;28;20195;-86
2021/05/25 08:34:36;;;;;;;3.38;1.00;;;25.20;99.90;;;;;;5076720;28;20183;-88
2021/05/25 08:37:02;;;;;;;3.78;1.50;;;26.10;99.90;;;;;;5055038;28;20316;-87
2021/05/25 08:39:27;;;;;;;7.03;1.00;;;25.90;99.90;;;;;;5053617;28;20172;-80
2021/05/25 08:41:53;;;;;;;3.40;1.40;;;25.70;99.90;;;;;;5053757;28;20693;-75
2021/05/25 08:44:18;;;;;;;5.50;1.20;;;26.00;99.90;;;;;;5054453;28;20597;-75
2021/05/25 08:46:48;;;;;;;2.35;1.20;;;26.00;99.90;;;;;;5053922;28;20176;-78
2021/05/25 08:49:14;;;;;;;3.30;1.08;;;25.60;99.90;;;;;;5053848;28;20171;-80
2021/05/25 08:51:40;;;;;;;9.88;1.60;;;24.50;99.90;;;;;;5065393;28;20221;-80
2021/05/25 08:54:08;;;;;;;1.92;0.90;;;23.30;99.90;;;;;;5069870;28;20187;-81
2021/05/25 08:56:34;;;;;;;7.95;1.33;;;22.90;99.90;;;;;;5052872;28;20259;-81
2021/05/25 08:59:00;;;;;;;7.72;1.10;;;23.40;99.90;;;;;;5054443;28;20190;-80
2021/05/25 09:01:26;;;;;;;6.68;1.20;;;23.70;99.90;;;;;;5055152;28;20167;-80
2021/05/25 09:04:01;;;;;;;4.82;1.20;;;22.60;99.90;;;;;;5053341;28;20571;-81
2021/05/25 09:06:40;;;;;;;6.57;1.25;;;21.90;99.90;;;;;;5053578;28;20213;-81
2021/05/25 09:09:14;;;;;;;8.40;1.40;;;23.40;99.90;;;;;;5062489;28;20631;-80
2021/05/25 09:12:05;;;;;;;4.38;1.02;;;23.70;99.90;;;;;;5074544;28;20560;-80
2021/05/25 09:14:33;;;;;;;4.65;1.08;;;23.50;99.90;;;;;;5066981;28;20167;-80
2021/05/25 09:17:22;;;;;;;4.03;1.10;;;23.80;99.90;;;;;;5054289;28;20167;-80
2021/05/25 09:19:52;;;;;;;6.85;1.30;;;24.90;99.90;;;;;;5054150;28;20575;-81
2021/05/25 09:22:35;;;;;;;4.22;1.17;;;23.40;99.90;;;;;;5052868;28;20625;-80
2021/05/25 09:25:24;;;;;;;4.95;1.50;;;22.00;99.90;;;;;;5054504;28;20159;-80
2021/05/25 09:28:04;;;;;;;4.57;1.35;;;20.20;99.90;;;;;;5054480;28;20158;-80
2021/05/25 09:30:32;;;;;;;8.95;1.73;;;18.90;99.90;;;;;;5052920;28;20536;-81
2021/05/25 09:33:01;;;;;;;2.75;1.15;;;18.10;99.90;;;;;;5054257;28;20218;-81
2021/05/25 09:35:32;;;;;;;3.97;1.40;;;17.80;99.90;;;;;;5054255;28;20172;-81
2021/05/25 09:38:01;;;;;;;11.02;1.92;;;17.50;99.90;;;;;;5054074;28;20168;-80
2021/05/25 09:40:31;;;;;;;7.22;1.65;;;17.10;99.90;;;;;;5053060;28;20168;-80
2021/05/25 09:43:13;;;;;;;5.55;1.58;;;16.80;99.90;;;;;;5054261;28;20171;-80
2021/05/25 09:45:55;;;;;;;10.10;2.38;;;16.70;99.90;;;;;;5053869;28;20167;-81
2021/05/25 09:48:25;;;;;;;8.15;1.20;;;16.50;99.90;;;;;;5052204;28;20186;-80
2021/05/25 09:50:50;;;;;;;7.45;1.58;;;16.60;99.90;;;;;;5052622;28;20179;-81
2021/05/25 09:53:23;;;;;;;5.65;1.25;;;16.80;99.90;;;;;;5053922;28;20199;-81
2021/05/25 09:56:01;;;;;;;9.20;1.48;;;16.80;99.90;;;;;;5053947;28;20160;-80
2021/05/25 09:58:32;;;;;;;7.53;1.30;;;16.90;99.90;;;;;;5053853;28;20253;-81
2021/05/25 10:00:59;;;;;;;8.45;1.80;;;16.80;99.90;;;;;;5053541;28;20164;-81
2021/05/25 10:03:29;;;;;;;7.63;1.23;;;16.30;99.90;;;;;;5053821;28;20183;-79
2021/05/25 10:05:59;;;;;;;5.30;1.33;;;14.80;99.90;;;;;;5052602;28;20164;-81
2021/05/25 10:08:25;;;;;;;3.22;1.05;;;13.60;99.90;;;;;;5052621;28;20175;-78
2021/05/25 10:10:54;;;;;;;3.30;1.10;;;13.10;99.90;;;;;;5053664;28;20647;-76
2021/05/25 10:13:21;;;;;;;3.50;1.05;;;12.30;99.90;;;;;;5051914;28;20221;-74
2021/05/25 10:15:49;;;;;;;4.13;0.80;;;12.00;99.90;;;;;;5053326;28;20168;-75
2021/05/25 10:21:14;;;;;;;3.78;0.98;;;11.70;99.90;;;;;;5036182;28;20186;-74
2021/05/25 10:23:43;;;;;;;5.70;1.10;;;11.80;99.90;;;;;;5053118;28;20175;-74
2021/05/25 10:26:16;;;;;;;3.53;1.00;;;11.90;99.90;;;;;;5053142;28;20241;-74
2021/05/25 10:28:53;;;;;;;4.70;1.15;;;12.20;99.90;;;;;;5052214;28;20198;-75
2021/05/25 10:31:36;;;;;;;2.90;0.80;;;12.90;99.90;;;;;;5053439;28;20159;-75
2021/05/25 10:34:21;;;;;;;3.78;0.90;;;13.90;99.90;;;;;;5053412;28;20168;-75
2021/05/25 10:37:00;;;;;;;3.03;1.10;;;15.10;99.90;;;;;;5053016;28;20168;-76
2021/05/25 10:39:35;;;;;;;3.25;0.77;;;15.90;99.90;;;;;;5051809;28;20171;-76
2021/05/25 10:42:29;;;;;;;2.78;0.90;;;16.40;99.90;;;;;;5053245;28;20609;-76
2021/05/25 10:45:10;;;;;;;3.28;0.77;;;16.30;99.90;;;;;;5051212;28;20336;-76
2021/05/25 10:47:42;;;;;;;1.83;0.70;;;16.40;99.90;;;;;;5053035;28;20167;-77
2021/05/25 10:50:30;;;;;;;8.00;1.13;;;17.00;99.90;;;;;;5053384;28;20621;-76
2021/05/25 10:52:56;;;;;;;5.68;1.30;;;17.90;99.90;;;;;;5051966;28;20294;-76
2021/05/25 10:55:35;;;;;;;3.70;1.15;;;18.80;99.90;;;;;;5052549;28;20175;-76
2021/05/25 10:58:29;;;;;;;3.85;1.05;;;19.20;99.90;;;;;;5051588;28;20545;-76
2021/05/25 11:00:55;;;;;;;3.72;1.27;;;19.50;99.90;;;;;;5053214;28;20152;-76
2021/05/25 11:03:22;;;;;;;6.05;1.80;;;19.30;99.90;;;;;;5068688;28;20174;-75
2021/05/25 11:05:49;;;;;;;5.18;1.27;;;19.00;99.90;;;;;;5063221;28;20186;-76
2021/05/25 11:08:15;;;;;;;3.90;1.50;;;18.40;99.90;;;;;;5053598;28;20532;-76
2021/05/25 11:10:42;;;;;;;7.85;1.67;;;17.90;99.90;;;;;;5055527;28;20170;-76
2021/05/25 11:13:17;;;;;;;8.35;1.35;;;17.50;99.90;;;;;;5055269;28;20214;-75
2021/05/25 11:16:13;;;;;;;6.43;1.85;;;16.90;99.90;;;;;;5055100;28;20179;-76
2021/05/25 11:18:58;;;;;;;5.85;1.17;;;16.90;99.90;;;;;;5055250;28;20648;-76
2021/05/25 11:24:36;;;;;;;4.07;1.40;;;16.10;99.90;;;;;;5056276;28;20171;-76
2021/05/25 11:27:12;;;;;;;6.93;1.02;;;15.60;99.90;;;;;;5056351;28;20175;-77
2021/05/25 11:29:52;;;;;;;7.15;1.52;;;15.80;99.90;;;;;;5055212;28;20163;-77
2021/05/25 11:32:20;;;;;;;3.25;1.15;;;16.80;99.90;;;;;;5056541;28;20187;-77
2021/05/25 11:34:55;;;;;;;7.13;1.50;;;18.00;99.90;;;;;;5056047;28;20176;-76
2021/05/25 11:37:21;;;;;;;3.03;1.05;;;18.70;99.90;;;;;;5055073;28;20163;-77
2021/05/25 11:39:47;;;;;;;5.85;1.65;;;18.80;99.90;;;;;;5055222;28;20173;-76
2021/05/25 11:42:13;;;;;;;4.40;1.25;;;18.40;99.90;;;;;;5055016;28;20271;-76
2021/05/25 11:44:45;;;;;;;4.85;1.00;;;18.40;99.90;;;;;;5055516;28;20682;-77
2021/05/25 11:47:12;;;;;;;4.45;1.27;;;19.10;99.90;;;;;;5056191;28;20170;-76
2021/05/25 11:49:40;;;;;;;5.70;1.00;;;19.30;99.90;;;;;;5054913;28;20181;-76
2021/05/25 11:52:43;;;;;;;3.13;0.90;;;19.60;99.90;;;;;;5054465;28;20239;-77
2021/05/25 11:55:11;;;;;;;6.35;1.40;;;19.50;99.90;;;;;;5048724;28;20647;-77
2021/05/25 11:57:46;;;;;;;6.43;1.75;;;19.70;99.90;;;;;;5054644;28;20210;-77
2021/05/25 12:00:21;;;;;;;3.53;1.00;;;19.50;99.90;;;;;;5055766;28;20156;-76
2021/05/25 12:02:49;;;;;;;2.25;0.80;;;18.60;99.90;;;;;;5054724;28;20257;-77
2021/05/25 12:05:25;;;;;;;4.25;1.52;;;17.10;99.90;;;;;;5055587;28;20175;-77
2021/05/25 12:07:59;;;;;;;2.50;0.88;;;16.10;99.90;;;;;;5054473;28;20199;-76
2021/05/25 12:10:30;;;;;;;4.15;0.90;;;15.80;99.90;;;;;;5055809;28;20167;-76
2021/05/25 12:13:06;;;;;;;3.10;0.90;;;16.00;99.90;;;;;;5055776;28;20191;-76
2021/05/25 12:15:32;;;;;;;4.10;1.15;;;16.20;99.90;;;;;;5054278;28;20627;-76
2021/05/25 12:18:00;;;;;;;3.97;0.90;;;16.70;99.90;;;;;;5055415;28;20530;-76
2021/05/25 12:20:42;;;;;;;2.47;1.00;;;17.00;99.90;;;;;;5055436;28;20172;-76
2021/05/25 12:23:10;;;;;;;2.78;1.25;;;17.70;99.90;;;;;;5055401;28;20183;-77
2021/05/25 12:25:36;;;;;;;2.45;0.95;;;18.20;99.90;;;;;;5054104;28;20265;-76
2021/05/25 12:28:10;;;;;;;5.05;1.02;;;18.60;99.90;;;;;;5055512;28;20171;-77
2021/05/25 12:30:37;;;;;;;1.98;0.85;;;18.90;99.90;;;;;;5055367;28;20172;-77
2021/05/25 12:33:05;;;;;;;6.38;1.20;;;19.10;99.90;;;;;;5055308;28;20198;-77
2021/05/25 12:35:31;;;;;;;2.67;1.00;;;19.10;99.90;;;;;;5055113;28;20183;-77
2021/05/25 12:38:09;;;;;;;5.93;1.52;;;19.30;99.90;;;;;;5054180;28;20176;-76
2021/05/25 12:40:40;;;;;;;4.15;1.10;;;19.70;99.90;;;;;;5042973;28;20197;-76
2021/05/25 12:43:17;;;;;;;3.67;1.50;;;19.70;99.90;;;;;;5053364;28;20171;-76
2021/05/25 12:45:44;;;;;;;7.40;1.27;;;19.60;99.90;;;;;;5042216;28;20168;-77
2021/05/25 12:48:11;;;;;;;4.07;1.60;;;19.30;99.90;;;;;;5050039;28;20532;-77
2021/05/25 12:50:38;;;;;;;4.93;1.73;;;19.10;99.90;;;;;;5067281;28;20176;-77
2021/05/25 12:53:09;;;;;;;3.80;1.48;;;18.50;99.90;;;;;;5048335;28;20611;-78
2021/05/25 12:55:39;;;;;;;6.20;1.30;;;17.70;99.90;;;;;;5067437;28;20293;-77
2021/05/25 12:58:05;;;;;;;4.75;1.27;;;16.90;99.90;;;;;;5061690;28;20229;-78
2021/05/25 13:00:41;;;;;;;6.30;1.52;;;16.20;99.90;;;;;;5062075;28;20171;-76
2021/05/25 13:03:24;;;;;;;1.80;1.05;;;15.60;99.90;;;;;;5054328;28;20523;-77
2021/05/25 13:05:52;;;;;;;5.30;1.00;;;15.00;99.90;;;;;;5053331;28;20639;-76